createdAt,value
2022-08-02T00:03:36.588Z,83.48
2022-08-02T00:08:58.652Z,83.66
2022-08-02T00:14:20.574Z,83.67
2022-08-02T00:19:42.638Z,83.69
2022-08-02T00:25:05.345Z,83.93
2022-08-02T00:30:27.253Z,83.56
2022-08-02T00:35:49.135Z,84.33
2022-08-02T00:41:12.994Z,83.54
2022-08-02T00:46:34.814Z,85.49
2022-08-02T00:51:56.669Z,86.11
2022-08-02T00:57:18.590Z,86.66
2022-08-02T01:02:40.800Z,86.93
2022-08-02T01:08:03.733Z,89.73
2022-08-02T01:13:26.392Z,89.20
2022-08-02T01:18:54.162Z,89.71
2022-08-02T01:24:48.161Z,91.31
2022-08-02T01:30:11.206Z,90.79
2022-08-02T01:35:50.780Z,90.37
2022-08-02T01:41:19.812Z,90.64
2022-08-02T01:46:43.268Z,92.00
2022-08-02T01:52:09.416Z,93.74
2022-08-02T01:57:39.194Z,93.77
2022-08-02T02:03:05.917Z,94.67
2022-08-02T02:08:36.293Z,96.37
2022-08-02T02:14:00.729Z,94.61
2022-08-02T02:19:24.003Z,93.80
2022-08-02T02:24:45.822Z,94.19
2022-08-02T02:30:09.537Z,94.74
2022-08-02T02:35:34.765Z,94.78
2022-08-02T02:41:00.752Z,94.69
2022-08-02T02:46:23.548Z,95.39
2022-08-02T02:51:46.255Z,95.13
2022-08-02T02:57:09.600Z,94.57
2022-08-02T03:02:34.483Z,95.59
2022-08-02T03:07:56.337Z,99.25
2022-08-02T03:13:18.732Z,99.13
2022-08-02T03:18:42.951Z,99.12
2022-08-02T03:24:05.510Z,98.80
2022-08-02T03:29:30.346Z,93.13
2022-08-02T03:34:54.566Z,91.32
2022-08-02T03:40:17.874Z,92.52
2022-08-02T03:45:43.305Z,87.88
2022-08-02T03:51:05.737Z,84.14
2022-08-02T03:56:29.092Z,78.19
2022-08-02T04:01:50.916Z,68.28
2022-08-02T04:07:12.748Z,58.20
2022-08-02T04:12:34.585Z,53.92
2022-08-02T04:17:59.804Z,48.51
2022-08-02T04:23:24.188Z,46.66
2022-08-02T04:28:48.802Z,49.21
2022-08-02T04:34:14.807Z,56.69
2022-08-02T04:39:37.565Z,56.68
2022-08-02T04:44:59.433Z,56.03
2022-08-02T04:50:21.290Z,52.60
2022-08-02T04:55:43.198Z,49.12
2022-08-02T05:01:05.071Z,39.47
2022-08-02T05:06:27.300Z,38.71
2022-08-02T05:11:55.112Z,39.84
2022-08-02T05:17:17.110Z,33.02
2022-08-02T05:22:39.552Z,29.56
2022-08-02T05:28:01.399Z,27.54
2022-08-02T05:33:23.197Z,27.46
2022-08-02T05:38:49.746Z,24.62
2022-08-02T05:44:12.023Z,24.36
2022-08-02T05:49:33.979Z,22.30
2022-08-02T05:55:04.652Z,22.91
2022-08-02T06:00:30.526Z,22.64
2022-08-02T06:06:09.768Z,19.36
2022-08-02T06:11:38.239Z,19.87
2022-08-02T06:17:04.586Z,21.67
2022-08-02T06:22:35.999Z,21.91
2022-08-02T06:28:04.936Z,21.07
2022-08-02T06:33:33.561Z,21.23
2022-08-02T06:38:58.122Z,21.00
2022-08-02T06:44:45.622Z,21.28
2022-08-02T06:50:02.062Z,22.09
2022-08-02T06:55:24.084Z,21.78
2022-08-02T07:00:45.952Z,21.19
2022-08-02T07:06:08.474Z,22.81
2022-08-02T07:11:30.286Z,22.02
2022-08-02T07:16:52.111Z,23.48
2022-08-02T07:22:13.994Z,22.26
2022-08-02T07:27:36.215Z,20.91
2022-08-02T07:32:58.863Z,19.12
2022-08-02T07:38:20.698Z,20.40
2022-08-02T07:43:42.754Z,20.65
2022-08-02T07:49:04.686Z,20.94
2022-08-02T07:54:26.585Z,24.93
2022-08-02T07:59:48.419Z,23.03
2022-08-02T08:05:11.353Z,20.86
2022-08-02T08:10:34.002Z,22.16
2022-08-02T08:15:55.842Z,20.32
2022-08-02T08:21:17.897Z,20.25
2022-08-02T08:26:40.042Z,20.86
2022-08-02T08:32:02.315Z,20.43
2022-08-02T08:37:24.194Z,21.53
2022-08-02T08:42:46.217Z,19.81
2022-08-02T08:48:11.251Z,20.12
2022-08-02T08:53:40.345Z,21.35
2022-08-02T08:59:04.547Z,21.51
2022-08-02T09:04:26.347Z,22.07
2022-08-02T09:09:48.360Z,22.58
2022-08-02T09:15:15.850Z,22.28
2022-08-02T09:21:04.517Z,25.00
2022-08-02T09:26:28.705Z,24.94
2022-08-02T09:31:51.566Z,27.29
2022-08-02T09:37:30.525Z,26.87
2022-08-02T09:43:01.429Z,26.82
2022-08-02T09:48:23.244Z,26.89
2022-08-02T09:53:45.163Z,27.66
2022-08-02T09:59:07.751Z,27.36
2022-08-02T10:04:31.434Z,27.82
2022-08-02T10:09:53.492Z,29.60
2022-08-02T10:15:17.484Z,31.07
2022-08-02T10:20:44.712Z,32.24
2022-08-02T10:26:07.896Z,33.25
2022-08-02T10:31:43.600Z,35.16
2022-08-02T10:37:06.794Z,34.73
2022-08-02T10:42:43.544Z,33.07
2022-08-02T10:48:11.134Z,33.99
2022-08-02T10:53:34.131Z,33.47
2022-08-02T10:59:32.277Z,34.63
2022-08-02T11:04:54.033Z,33.01
2022-08-02T11:10:36.847Z,34.90
2022-08-02T11:16:04.421Z,34.59
2022-08-02T11:21:30.554Z,34.80
2022-08-02T11:26:52.880Z,34.25
2022-08-02T11:32:30.659Z,33.76
2022-08-02T11:37:53.310Z,34.97
2022-08-02T11:43:23.736Z,37.60
2022-08-02T11:48:45.581Z,36.71
2022-08-02T11:54:07.416Z,36.65
2022-08-02T11:59:29.246Z,36.61
2022-08-02T12:04:57.322Z,36.99
2022-08-02T12:10:23.164Z,36.93
2022-08-02T12:15:46.579Z,38.21
2022-08-02T12:21:26.377Z,37.93
2022-08-02T12:26:48.240Z,38.43
2022-08-02T12:32:24.561Z,38.27
2022-08-02T12:37:50.817Z,39.77
2022-08-02T12:43:24.638Z,38.25
2022-08-02T12:49:08.346Z,38.89
2022-08-02T12:54:32.226Z,39.25
2022-08-02T12:59:54.165Z,39.34
2022-08-02T13:05:16.095Z,39.52
2022-08-02T13:10:38.215Z,39.46
2022-08-02T13:16:00.483Z,38.90
2022-08-02T13:21:41.174Z,40.30
2022-08-02T13:27:07.851Z,39.76
2022-08-02T13:32:29.762Z,40.36
2022-08-02T13:37:51.663Z,39.06
2022-08-02T13:43:13.495Z,38.70
2022-08-02T13:48:35.330Z,39.57
2022-08-02T13:53:57.262Z,39.24
2022-08-02T13:59:54.808Z,38.81
2022-08-02T14:05:00.876Z,39.75
2022-08-02T14:10:22.813Z,40.65
2022-08-02T14:15:45.088Z,41.02
2022-08-02T14:21:06.937Z,40.96
2022-08-02T14:26:28.839Z,41.29
2022-08-02T14:31:50.646Z,42.35
2022-08-02T14:37:12.477Z,42.12
2022-08-02T14:42:36.315Z,42.32
2022-08-02T14:47:58.217Z,42.97
2022-08-02T14:53:20.111Z,42.48
2022-08-02T14:58:41.967Z,41.08
2022-08-02T15:04:03.955Z,40.89
2022-08-02T15:09:25.800Z,41.28
2022-08-02T15:14:48.008Z,39.66
2022-08-02T15:20:25.225Z,39.19
2022-08-02T15:25:47.957Z,40.52
2022-08-02T15:31:09.868Z,41.42
2022-08-02T15:36:31.717Z,40.71
2022-08-02T15:41:53.547Z,40.92
2022-08-02T15:47:15.815Z,42.07
2022-08-02T15:52:37.826Z,43.42
2022-08-02T15:57:59.631Z,43.46
2022-08-02T16:03:22.128Z,44.34
2022-08-02T16:08:53.532Z,44.06
2022-08-02T16:14:16.797Z,44.61
2022-08-02T16:19:48.805Z,44.47
2022-08-02T16:25:17.081Z,43.65
2022-08-02T16:30:39.441Z,44.61
2022-08-02T16:36:01.292Z,44.61
2022-08-02T16:41:23.235Z,45.08
2022-08-02T16:47:05.136Z,44.70
2022-08-02T16:52:27.625Z,45.26
2022-08-02T16:57:50.298Z,45.13
2022-08-02T17:03:13.587Z,45.39
2022-08-02T17:08:55.278Z,45.56
2022-08-02T17:14:17.106Z,46.06
2022-08-02T17:19:39.224Z,46.20
2022-08-02T17:25:01.135Z,46.59
2022-08-02T17:30:26.643Z,48.13
2022-08-02T17:35:52.896Z,47.50
2022-08-02T17:41:15.173Z,47.70
2022-08-02T17:46:37.408Z,48.77
2022-08-02T17:52:49.023Z,49.12
2022-08-02T17:57:58.321Z,49.62
2022-08-02T18:03:20.961Z,49.74
2022-08-02T18:08:44.774Z,50.34
2022-08-02T18:14:13.402Z,50.43
2022-08-02T18:19:53.959Z,51.18
2022-08-02T18:25:36.580Z,51.93
2022-08-02T18:31:00.586Z,53.09
2022-08-02T18:36:29.407Z,53.44
2022-08-02T18:41:51.904Z,54.33
2022-08-02T18:47:14.053Z,54.64
2022-08-02T18:52:36.412Z,55.61
2022-08-02T18:58:17.986Z,56.25
2022-08-02T19:03:40.089Z,56.37
2022-08-02T19:09:11.153Z,56.93
2022-08-02T19:14:35.528Z,57.50
2022-08-02T19:19:57.406Z,58.95
2022-08-02T19:25:19.359Z,59.48
2022-08-02T19:30:41.195Z,61.87
2022-08-02T19:36:06.064Z,61.84
2022-08-02T19:41:27.946Z,62.05
2022-08-02T19:47:06.016Z,62.22
2022-08-02T19:52:34.294Z,62.69
2022-08-02T19:57:56.534Z,63.12
2022-08-02T20:03:19.653Z,63.50
2022-08-02T20:09:01.781Z,64.32
2022-08-02T20:14:27.563Z,67.21
2022-08-02T20:19:49.773Z,67.89
2022-08-02T20:25:15.906Z,69.69
2022-08-02T20:30:38.278Z,70.96
2022-08-02T20:36:00.122Z,69.86
2022-08-02T20:41:36.716Z,71.40
2022-08-02T20:47:04.957Z,71.53
2022-08-02T20:52:28.229Z,70.64
2022-08-02T20:58:00.904Z,71.43
2022-08-02T21:03:23.476Z,72.40
2022-08-02T21:08:46.133Z,73.91
2022-08-02T21:14:09.222Z,75.18
2022-08-02T21:19:31.102Z,76.86
2022-08-02T21:24:52.938Z,77.94
2022-08-02T21:30:15.009Z,79.76
2022-08-02T21:35:36.866Z,79.66
2022-08-02T21:40:58.677Z,77.25
2022-08-02T21:46:20.493Z,77.95
2022-08-02T21:51:49.584Z,79.40
2022-08-02T21:57:15.728Z,78.85
2022-08-02T22:02:38.554Z,78.89
2022-08-02T22:08:00.440Z,79.47
2022-08-02T22:13:22.287Z,80.19
2022-08-02T22:18:51.366Z,81.58
2022-08-02T22:24:19.483Z,82.41
2022-08-02T22:29:41.510Z,82.19
2022-08-02T22:35:08.733Z,82.35
2022-08-02T22:40:30.784Z,82.03
2022-08-02T22:45:54.996Z,82.71
2022-08-02T22:51:16.893Z,82.69
2022-08-02T22:56:38.717Z,83.22
2022-08-02T23:02:06.537Z,83.34
2022-08-02T23:07:28.417Z,83.30
2022-08-02T23:12:57.987Z,86.10
2022-08-02T23:18:19.893Z,85.96
2022-08-02T23:23:44.851Z,87.52
2022-08-02T23:29:06.720Z,87.01
2022-08-02T23:34:28.604Z,88.14
2022-08-02T23:39:51.030Z,89.25
2022-08-02T23:45:12.871Z,89.91
2022-08-02T23:50:34.708Z,92.64
2022-08-02T23:55:56.775Z,92.26
